sensor_id;sensor_type;location;lat;lon;timestamp;P1;durP1;ratioP1;P2;durP2;ratioP2
27921;SDS011;15261;50.356;10.340;2023-10-08T00:01:02;5.65;;;4.03;;
27921;SDS011;15261;50.356;10.340;2023-10-08T00:03:28;6.40;;;4.50;;
27921;SDS011;15261;50.356;10.340;2023-10-08T00:05:54;5.68;;;4.30;;
27921;SDS011;15261;50.356;10.340;2023-10-08T00:08:20;7.15;;;4.57;;
27921;SDS011;15261;50.356;10.340;2023-10-08T00:10:46;8.35;;;4.90;;
27921;SDS011;15261;50.356;10.340;2023-10-08T00:13:13;7.65;;;5.10;;
27921;SDS011;15261;50.356;10.340;2023-10-08T00:15:42;7.40;;;4.85;;
27921;SDS011;15261;50.356;10.340;2023-10-08T00:18:18;8.70;;;4.47;;
27921;SDS011;15261;50.356;10.340;2023-10-08T00:20:45;6.18;;;4.65;;
27921;SDS011;15261;50.356;10.340;2023-10-08T00:23:20;8.52;;;4.90;;
27921;SDS011;15261;50.356;10.340;2023-10-08T00:25:50;5.47;;;4.50;;
27921;SDS011;15261;50.356;10.340;2023-10-08T00:28:16;6.82;;;4.72;;
27921;SDS011;15261;50.356;10.340;2023-10-08T00:30:42;7.85;;;4.47;;
27921;SDS011;15261;50.356;10.340;2023-10-08T00:33:08;8.40;;;4.88;;
27921;SDS011;15261;50.356;10.340;2023-10-08T00:35:37;9.05;;;4.85;;
27921;SDS011;15261;50.356;10.340;2023-10-08T00:38:03;7.85;;;4.70;;
27921;SDS011;15261;50.356;10.340;2023-10-08T00:40:39;5.28;;;4.32;;
27921;SDS011;15261;50.356;10.340;2023-10-08T00:43:05;7.70;;;4.60;;
27921;SDS011;15261;50.356;10.340;2023-10-08T00:45:38;5.78;;;4.40;;
27921;SDS011;15261;50.356;10.340;2023-10-08T00:48:11;7.80;;;4.75;;
27921;SDS011;15261;50.356;10.340;2023-10-08T00:50:45;8.65;;;4.50;;
27921;SDS011;15261;50.356;10.340;2023-10-08T00:53:12;5.90;;;4.53;;
27921;SDS011;15261;50.356;10.340;2023-10-08T00:55:48;9.57;;;4.40;;
27921;SDS011;15261;50.356;10.340;2023-10-08T00:58:29;7.28;;;4.78;;
27921;SDS011;15261;50.356;10.340;2023-10-08T01:19:24;8.15;;;4.60;;
27921;SDS011;15261;50.356;10.340;2023-10-08T01:22:32;6.95;;;5.10;;
27921;SDS011;15261;50.356;10.340;2023-10-08T01:24:58;9.00;;;4.57;;
27921;SDS011;15261;50.356;10.340;2023-10-08T01:27:29;6.78;;;4.57;;
27921;SDS011;15261;50.356;10.340;2023-10-08T01:29:59;8.15;;;4.32;;
27921;SDS011;15261;50.356;10.340;2023-10-08T01:32:34;9.43;;;4.72;;
27921;SDS011;15261;50.356;10.340;2023-10-08T01:35:01;6.95;;;4.78;;
27921;SDS011;15261;50.356;10.340;2023-10-08T01:37:29;8.07;;;4.57;;
27921;SDS011;15261;50.356;10.340;2023-10-08T01:39:59;7.15;;;4.90;;
27921;SDS011;15261;50.356;10.340;2023-10-08T01:42:27;5.20;;;4.25;;
27921;SDS011;15261;50.356;10.340;2023-10-08T01:44:53;11.07;;;5.55;;
27921;SDS011;15261;50.356;10.340;2023-10-08T01:47:22;7.53;;;4.60;;
27921;SDS011;15261;50.356;10.340;2023-10-08T01:49:50;6.47;;;4.60;;
27921;SDS011;15261;50.356;10.340;2023-10-08T01:52:23;6.65;;;4.70;;
27921;SDS011;15261;50.356;10.340;2023-10-08T01:54:48;9.30;;;4.50;;
27921;SDS011;15261;50.356;10.340;2023-10-08T01:57:15;5.30;;;4.32;;
27921;SDS011;15261;50.356;10.340;2023-10-08T01:59:42;8.35;;;4.70;;
27921;SDS011;15261;50.356;10.340;2023-10-08T02:02:09;9.73;;;5.07;;
27921;SDS011;15261;50.356;10.340;2023-10-08T02:04:35;10.15;;;5.18;;
27921;SDS011;15261;50.356;10.340;2023-10-08T02:07:04;6.20;;;4.57;;
27921;SDS011;15261;50.356;10.340;2023-10-08T02:09:33;7.72;;;4.68;;
27921;SDS011;15261;50.356;10.340;2023-10-08T02:11:59;10.77;;;4.75;;
27921;SDS011;15261;50.356;10.340;2023-10-08T02:14:25;8.40;;;4.65;;
27921;SDS011;15261;50.356;10.340;2023-10-08T02:16:51;6.47;;;5.20;;
27921;SDS011;15261;50.356;10.340;2023-10-08T02:19:21;8.88;;;4.65;;
27921;SDS011;15261;50.356;10.340;2023-10-08T02:21:52;9.23;;;4.75;;
27921;SDS011;15261;50.356;10.340;2023-10-08T02:24:19;7.75;;;5.13;;
27921;SDS011;15261;50.356;10.340;2023-10-08T02:26:46;7.85;;;4.68;;
27921;SDS011;15261;50.356;10.340;2023-10-08T02:29:12;10.48;;;4.55;;
27921;SDS011;15261;50.356;10.340;2023-10-08T02:31:38;6.70;;;4.57;;
27921;SDS011;15261;50.356;10.340;2023-10-08T02:34:05;6.93;;;4.15;;
27921;SDS011;15261;50.356;10.340;2023-10-08T02:36:35;8.48;;;5.30;;
27921;SDS011;15261;50.356;10.340;2023-10-08T02:39:05;15.60;;;5.05;;
27921;SDS011;15261;50.356;10.340;2023-10-08T02:41:42;13.05;;;5.50;;
27921;SDS011;15261;50.356;10.340;2023-10-08T02:44:10;11.98;;;5.47;;
27921;SDS011;15261;50.356;10.340;2023-10-08T02:46:41;10.65;;;5.28;;
27921;SDS011;15261;50.356;10.340;2023-10-08T02:49:14;8.60;;;4.93;;
27921;SDS011;15261;50.356;10.340;2023-10-08T02:51:48;6.63;;;4.63;;
27921;SDS011;15261;50.356;10.340;2023-10-08T02:54:16;10.05;;;5.05;;
27921;SDS011;15261;50.356;10.340;2023-10-08T02:56:53;8.38;;;4.88;;
27921;SDS011;15261;50.356;10.340;2023-10-08T02:59:24;10.10;;;5.28;;
27921;SDS011;15261;50.356;10.340;2023-10-08T03:01:53;12.02;;;4.93;;
27921;SDS011;15261;50.356;10.340;2023-10-08T03:04:22;12.25;;;5.30;;
27921;SDS011;15261;50.356;10.340;2023-10-08T03:06:48;7.45;;;4.82;;
27921;SDS011;15261;50.356;10.340;2023-10-08T03:09:18;11.93;;;5.03;;
27921;SDS011;15261;50.356;10.340;2023-10-08T03:11:57;8.20;;;4.40;;
27921;SDS011;15261;50.356;10.340;2023-10-08T03:14:23;7.40;;;5.25;;
27921;SDS011;15261;50.356;10.340;2023-10-08T03:16:52;8.07;;;4.50;;
27921;SDS011;15261;50.356;10.340;2023-10-08T03:19:20;11.15;;;4.60;;
27921;SDS011;15261;50.356;10.340;2023-10-08T03:21:47;8.38;;;5.28;;
27921;SDS011;15261;50.356;10.340;2023-10-08T03:24:16;5.88;;;4.82;;
27921;SDS011;15261;50.356;10.340;2023-10-08T03:26:55;8.68;;;4.75;;
27921;SDS011;15261;50.356;10.340;2023-10-08T03:29:31;16.52;;;5.93;;
27921;SDS011;15261;50.356;10.340;2023-10-08T03:31:57;12.23;;;5.55;;
27921;SDS011;15261;50.356;10.340;2023-10-08T03:34:22;11.07;;;5.18;;
27921;SDS011;15261;50.356;10.340;2023-10-08T03:36:59;10.35;;;5.38;;
27921;SDS011;15261;50.356;10.340;2023-10-08T03:39:30;7.65;;;5.10;;
27921;SDS011;15261;50.356;10.340;2023-10-08T03:42:28;9.25;;;5.43;;
27921;SDS011;15261;50.356;10.340;2023-10-08T03:45:05;10.13;;;4.85;;
27921;SDS011;15261;50.356;10.340;2023-10-08T03:47:37;11.43;;;5.18;;
27921;SDS011;15261;50.356;10.340;2023-10-08T03:50:07;10.80;;;5.07;;
27921;SDS011;15261;50.356;10.340;2023-10-08T03:52:36;8.80;;;5.72;;
27921;SDS011;15261;50.356;10.340;2023-10-08T03:55:06;7.72;;;5.05;;
27921;SDS011;15261;50.356;10.340;2023-10-08T03:57:45;8.20;;;5.07;;
27921;SDS011;15261;50.356;10.340;2023-10-08T04:00:13;9.15;;;5.75;;
27921;SDS011;15261;50.356;10.340;2023-10-08T04:02:53;8.13;;;5.03;;
27921;SDS011;15261;50.356;10.340;2023-10-08T04:05:23;12.07;;;5.38;;
27921;SDS011;15261;50.356;10.340;2023-10-08T04:07:57;8.60;;;4.55;;
27921;SDS011;15261;50.356;10.340;2023-10-08T04:10:23;7.60;;;4.72;;
27921;SDS011;15261;50.356;10.340;2023-10-08T04:13:03;8.55;;;4.80;;
27921;SDS011;15261;50.356;10.340;2023-10-08T04:15:33;13.10;;;4.97;;
27921;SDS011;15261;50.356;10.340;2023-10-08T04:18:09;8.23;;;4.88;;
27921;SDS011;15261;50.356;10.340;2023-10-08T04:20:35;7.35;;;5.32;;
27921;SDS011;15261;50.356;10.340;2023-10-08T04:23:05;11.85;;;5.13;;
27921;SDS011;15261;50.356;10.340;2023-10-08T04:25:46;8.18;;;5.10;;
27921;SDS011;15261;50.356;10.340;2023-10-08T04:28:19;7.65;;;5.18;;
27921;SDS011;15261;50.356;10.340;2023-10-08T04:30:45;6.55;;;5.00;;
27921;SDS011;15261;50.356;10.340;2023-10-08T04:33:15;8.40;;;5.10;;
27921;SDS011;15261;50.356;10.340;2023-10-08T04:35:44;11.75;;;5.05;;
27921;SDS011;15261;50.356;10.340;2023-10-08T04:38:17;9.25;;;5.03;;
27921;SDS011;15261;50.356;10.340;2023-10-08T04:40:46;6.50;;;4.85;;
27921;SDS011;15261;50.356;10.340;2023-10-08T04:43:19;9.25;;;5.57;;
27921;SDS011;15261;50.356;10.340;2023-10-08T04:45:52;10.02;;;5.32;;
27921;SDS011;15261;50.356;10.340;2023-10-08T04:48:18;7.80;;;5.25;;
27921;SDS011;15261;50.356;10.340;2023-10-08T04:50:48;7.65;;;5.20;;
27921;SDS011;15261;50.356;10.340;2023-10-08T04:56:02;8.52;;;5.18;;
27921;SDS011;15261;50.356;10.340;2023-10-08T04:58:39;8.88;;;5.32;;
27921;SDS011;15261;50.356;10.340;2023-10-08T05:01:08;8.30;;;5.03;;
27921;SDS011;15261;50.356;10.340;2023-10-08T05:03:47;8.50;;;5.25;;
27921;SDS011;15261;50.356;10.340;2023-10-08T05:06:34;9.02;;;5.53;;
27921;SDS011;15261;50.356;10.340;2023-10-08T05:09:21;7.70;;;5.15;;
27921;SDS011;15261;50.356;10.340;2023-10-08T05:11:55;8.77;;;5.35;;
27921;SDS011;15261;50.356;10.340;2023-10-08T05:14:24;7.13;;;5.28;;
27921;SDS011;15261;50.356;10.340;2023-10-08T05:17:05;9.55;;;5.60;;
27921;SDS011;15261;50.356;10.340;2023-10-08T05:19:36;9.30;;;5.00;;
27921;SDS011;15261;50.356;10.340;2023-10-08T05:22:05;10.02;;;5.45;;
27921;SDS011;15261;50.356;10.340;2023-10-08T05:24:43;10.93;;;5.68;;
27921;SDS011;15261;50.356;10.340;2023-10-08T05:27:30;8.73;;;5.30;;
27921;SDS011;15261;50.356;10.340;2023-10-08T05:30:30;6.85;;;5.13;;
27921;SDS011;15261;50.356;10.340;2023-10-08T05:33:19;11.90;;;5.20;;
27921;SDS011;15261;50.356;10.340;2023-10-08T05:36:09;6.80;;;4.85;;
27921;SDS011;15261;50.356;10.340;2023-10-08T05:38:43;7.80;;;5.25;;
27921;SDS011;15261;50.356;10.340;2023-10-08T05:41:25;7.63;;;5.15;;
27921;SDS011;15261;50.356;10.340;2023-10-08T05:44:07;9.48;;;5.35;;
27921;SDS011;15261;50.356;10.340;2023-10-08T05:46:39;9.05;;;5.50;;
27921;SDS011;15261;50.356;10.340;2023-10-08T05:49:14;8.73;;;5.18;;
27921;SDS011;15261;50.356;10.340;2023-10-08T05:51:40;9.45;;;5.78;;
27921;SDS011;15261;50.356;10.340;2023-10-08T05:54:14;8.13;;;5.70;;
27921;SDS011;15261;50.356;10.340;2023-10-08T05:56:52;8.77;;;5.38;;
27921;SDS011;15261;50.356;10.340;2023-10-08T05:59:37;8.88;;;5.97;;
27921;SDS011;15261;50.356;10.340;2023-10-08T06:02:23;8.75;;;5.57;;
27921;SDS011;15261;50.356;10.340;2023-10-08T06:04:59;12.23;;;5.97;;
27921;SDS011;15261;50.356;10.340;2023-10-08T06:07:38;9.05;;;5.75;;
27921;SDS011;15261;50.356;10.340;2023-10-08T06:10:19;11.82;;;6.30;;
27921;SDS011;15261;50.356;10.340;2023-10-08T06:15:45;10.13;;;5.45;;
27921;SDS011;15261;50.356;10.340;2023-10-08T06:18:19;11.63;;;5.55;;
27921;SDS011;15261;50.356;10.340;2023-10-08T06:20:50;8.98;;;5.72;;
27921;SDS011;15261;50.356;10.340;2023-10-08T06:23:20;8.10;;;5.20;;
27921;SDS011;15261;50.356;10.340;2023-10-08T06:25:48;8.38;;;5.93;;
27921;SDS011;15261;50.356;10.340;2023-10-08T06:28:21;12.15;;;5.97;;
27921;SDS011;15261;50.356;10.340;2023-10-08T06:30:53;12.40;;;6.32;;
27921;SDS011;15261;50.356;10.340;2023-10-08T06:33:21;11.77;;;6.15;;
27921;SDS011;15261;50.356;10.340;2023-10-08T06:35:50;9.60;;;5.50;;
27921;SDS011;15261;50.356;10.340;2023-10-08T06:38:27;8.88;;;5.55;;
27921;SDS011;15261;50.356;10.340;2023-10-08T06:40:59;9.65;;;5.80;;
27921;SDS011;15261;50.356;10.340;2023-10-08T06:43:36;11.40;;;5.90;;
27921;SDS011;15261;50.356;10.340;2023-10-08T06:46:05;13.55;;;6.10;;
27921;SDS011;15261;50.356;10.340;2023-10-08T06:48:32;12.70;;;6.32;;
27921;SDS011;15261;50.356;10.340;2023-10-08T06:50:59;8.95;;;6.20;;
27921;SDS011;15261;50.356;10.340;2023-10-08T06:53:41;10.45;;;6.65;;
27921;SDS011;15261;50.356;10.340;2023-10-08T06:56:10;14.32;;;6.18;;
27921;SDS011;15261;50.356;10.340;2023-10-08T06:58:44;94.63;;;32.30;;
27921;SDS011;15261;50.356;10.340;2023-10-08T07:01:14;23.88;;;9.63;;
27921;SDS011;15261;50.356;10.340;2023-10-08T07:03:46;22.35;;;9.02;;
27921;SDS011;15261;50.356;10.340;2023-10-08T07:09:19;17.77;;;7.85;;
27921;SDS011;15261;50.356;10.340;2023-10-08T07:11:50;26.77;;;10.80;;
27921;SDS011;15261;50.356;10.340;2023-10-08T07:14:20;15.40;;;8.02;;
27921;SDS011;15261;50.356;10.340;2023-10-08T07:16:55;13.10;;;7.45;;
27921;SDS011;15261;50.356;10.340;2023-10-08T07:19:25;20.20;;;7.18;;
27921;SDS011;15261;50.356;10.340;2023-10-08T07:22:02;14.93;;;7.30;;
27921;SDS011;15261;50.356;10.340;2023-10-08T07:24:46;17.35;;;7.53;;
27921;SDS011;15261;50.356;10.340;2023-10-08T07:27:16;10.52;;;6.90;;
27921;SDS011;15261;50.356;10.340;2023-10-08T07:29:48;13.55;;;6.40;;
27921;SDS011;15261;50.356;10.340;2023-10-08T07:32:14;11.05;;;6.63;;
27921;SDS011;15261;50.356;10.340;2023-10-08T07:34:43;12.38;;;6.60;;
27921;SDS011;15261;50.356;10.340;2023-10-08T07:37:09;12.23;;;6.68;;
27921;SDS011;15261;50.356;10.340;2023-10-08T07:39:36;16.63;;;9.35;;
27921;SDS011;15261;50.356;10.340;2023-10-08T07:42:11;11.95;;;7.80;;
27921;SDS011;15261;50.356;10.340;2023-10-08T07:44:37;13.30;;;7.50;;
27921;SDS011;15261;50.356;10.340;2023-10-08T07:47:04;11.18;;;6.78;;
27921;SDS011;15261;50.356;10.340;2023-10-08T07:49:35;14.07;;;7.18;;
27921;SDS011;15261;50.356;10.340;2023-10-08T07:52:01;14.70;;;7.18;;
27921;SDS011;15261;50.356;10.340;2023-10-08T07:54:30;14.95;;;7.85;;
27921;SDS011;15261;50.356;10.340;2023-10-08T07:57:02;12.70;;;6.95;;
27921;SDS011;15261;50.356;10.340;2023-10-08T07:59:36;11.18;;;6.13;;
27921;SDS011;15261;50.356;10.340;2023-10-08T08:02:11;9.23;;;5.90;;
27921;SDS011;15261;50.356;10.340;2023-10-08T08:04:41;10.68;;;5.95;;
27921;SDS011;15261;50.356;10.340;2023-10-08T08:07:12;11.13;;;6.75;;
27921;SDS011;15261;50.356;10.340;2023-10-08T08:09:49;11.15;;;5.95;;
27921;SDS011;15261;50.356;10.340;2023-10-08T08:12:16;14.05;;;6.65;;
27921;SDS011;15261;50.356;10.340;2023-10-08T08:14:44;8.73;;;5.82;;
27921;SDS011;15261;50.356;10.340;2023-10-08T08:17:10;8.75;;;6.22;;
27921;SDS011;15261;50.356;10.340;2023-10-08T08:19:48;16.17;;;6.00;;
27921;SDS011;15261;50.356;10.340;2023-10-08T08:22:16;9.77;;;6.35;;
27921;SDS011;15261;50.356;10.340;2023-10-08T08:27:18;16.42;;;6.78;;
27921;SDS011;15261;50.356;10.340;2023-10-08T08:29:52;12.55;;;7.63;;
27921;SDS011;15261;50.356;10.340;2023-10-08T08:32:21;10.75;;;7.75;;
27921;SDS011;15261;50.356;10.340;2023-10-08T08:34:48;16.90;;;8.00;;
27921;SDS011;15261;50.356;10.340;2023-10-08T08:37:17;10.93;;;7.15;;
27921;SDS011;15261;50.356;10.340;2023-10-08T08:39:43;12.30;;;7.07;;
27921;SDS011;15261;50.356;10.340;2023-10-08T08:42:10;14.35;;;7.80;;
27921;SDS011;15261;50.356;10.340;2023-10-08T08:44:37;17.55;;;10.15;;
27921;SDS011;15261;50.356;10.340;2023-10-08T08:47:11;12.75;;;7.15;;
27921;SDS011;15261;50.356;10.340;2023-10-08T08:49:42;13.23;;;6.72;;
27921;SDS011;15261;50.356;10.340;2023-10-08T08:52:11;14.32;;;6.40;;
27921;SDS011;15261;50.356;10.340;2023-10-08T08:54:39;13.65;;;7.32;;
27921;SDS011;15261;50.356;10.340;2023-10-08T08:57:06;21.05;;;14.48;;
27921;SDS011;15261;50.356;10.340;2023-10-08T08:59:47;41.03;;;29.45;;
27921;SDS011;15261;50.356;10.340;2023-10-08T09:02:18;25.52;;;21.67;;
27921;SDS011;15261;50.356;10.340;2023-10-08T09:04:43;22.77;;;17.55;;
27921;SDS011;15261;50.356;10.340;2023-10-08T09:07:11;14.98;;;10.88;;
27921;SDS011;15261;50.356;10.340;2023-10-08T09:09:37;13.95;;;7.22;;
27921;SDS011;15261;50.356;10.340;2023-10-08T09:12:04;11.45;;;7.10;;
27921;SDS011;15261;50.356;10.340;2023-10-08T09:14:32;12.93;;;6.88;;
27921;SDS011;15261;50.356;10.340;2023-10-08T09:16:59;15.63;;;7.57;;
27921;SDS011;15261;50.356;10.340;2023-10-08T09:19:25;13.15;;;6.80;;
27921;SDS011;15261;50.356;10.340;2023-10-08T09:22:03;9.00;;;6.60;;
27921;SDS011;15261;50.356;10.340;2023-10-08T09:24:31;14.60;;;7.22;;
27921;SDS011;15261;50.356;10.340;2023-10-08T09:26:58;13.98;;;7.03;;
27921;SDS011;15261;50.356;10.340;2023-10-08T09:29:25;10.10;;;5.68;;
27921;SDS011;15261;50.356;10.340;2023-10-08T09:31:58;11.13;;;5.18;;
27921;SDS011;15261;50.356;10.340;2023-10-08T09:34:28;12.57;;;5.65;;
27921;SDS011;15261;50.356;10.340;2023-10-08T09:36:56;8.18;;;5.10;;
27921;SDS011;15261;50.356;10.340;2023-10-08T09:39:25;9.18;;;4.82;;
27921;SDS011;15261;50.356;10.340;2023-10-08T09:41:54;8.18;;;4.80;;
27921;SDS011;15261;50.356;10.340;2023-10-08T09:44:20;6.25;;;4.45;;
27921;SDS011;15261;50.356;10.340;2023-10-08T09:46:51;10.93;;;4.03;;
27921;SDS011;15261;50.356;10.340;2023-10-08T09:49:41;8.00;;;4.32;;
27921;SDS011;15261;50.356;10.340;2023-10-08T09:52:11;9.55;;;4.45;;
27921;SDS011;15261;50.356;10.340;2023-10-08T09:54:44;16.38;;;10.75;;
27921;SDS011;15261;50.356;10.340;2023-10-08T09:57:22;7.07;;;4.40;;
27921;SDS011;15261;50.356;10.340;2023-10-08T09:59:52;7.93;;;4.03;;
27921;SDS011;15261;50.356;10.340;2023-10-08T10:02:18;5.75;;;3.40;;
27921;SDS011;15261;50.356;10.340;2023-10-08T10:04:48;7.57;;;3.63;;
27921;SDS011;15261;50.356;10.340;2023-10-08T10:07:17;5.80;;;3.75;;
27921;SDS011;15261;50.356;10.340;2023-10-08T10:09:44;4.13;;;3.72;;
27921;SDS011;15261;50.356;10.340;2023-10-08T10:12:11;5.10;;;3.30;;
27921;SDS011;15261;50.356;10.340;2023-10-08T10:14:43;4.78;;;2.53;;
27921;SDS011;15261;50.356;10.340;2023-10-08T10:17:20;7.75;;;4.28;;
27921;SDS011;15261;50.356;10.340;2023-10-08T10:19:57;4.15;;;2.85;;
27921;SDS011;15261;50.356;10.340;2023-10-08T10:22:29;5.53;;;2.90;;
27921;SDS011;15261;50.356;10.340;2023-10-08T10:24:58;4.60;;;2.30;;
27921;SDS011;15261;50.356;10.340;2023-10-08T10:27:28;2.28;;;1.80;;
27921;SDS011;15261;50.356;10.340;2023-10-08T10:30:02;2.30;;;2.00;;
27921;SDS011;15261;50.356;10.340;2023-10-08T10:32:33;1.65;;;1.55;;
27921;SDS011;15261;50.356;10.340;2023-10-08T10:35:02;4.43;;;2.03;;
27921;SDS011;15261;50.356;10.340;2023-10-08T10:37:29;7.30;;;2.53;;
27921;SDS011;15261;50.356;10.340;2023-10-08T10:40:06;7.20;;;3.30;;
27921;SDS011;15261;50.356;10.340;2023-10-08T10:42:37;1.50;;;1.50;;
27921;SDS011;15261;50.356;10.340;2023-10-08T10:45:16;2.30;;;1.60;;
27921;SDS011;15261;50.356;10.340;2023-10-08T10:48:03;6.03;;;2.55;;
27921;SDS011;15261;50.356;10.340;2023-10-08T10:50:39;1.67;;;1.58;;
27921;SDS011;15261;50.356;10.340;2023-10-08T10:53:14;1.60;;;1.50;;
27921;SDS011;15261;50.356;10.340;2023-10-08T10:55:43;2.00;;;1.90;;
27921;SDS011;15261;50.356;10.340;2023-10-08T10:58:25;2.35;;;2.15;;
27921;SDS011;15261;50.356;10.340;2023-10-08T11:00:53;2.67;;;1.55;;
27921;SDS011;15261;50.356;10.340;2023-10-08T11:03:22;1.77;;;1.27;;
27921;SDS011;15261;50.356;10.340;2023-10-08T11:05:50;6.80;;;3.70;;
27921;SDS011;15261;50.356;10.340;2023-10-08T11:08:24;3.35;;;3.05;;
27921;SDS011;15261;50.356;10.340;2023-10-08T11:10:51;2.25;;;2.05;;
27921;SDS011;15261;50.356;10.340;2023-10-08T11:13:24;1.30;;;1.30;;
27921;SDS011;15261;50.356;10.340;2023-10-08T11:16:02;3.22;;;1.40;;
27921;SDS011;15261;50.356;10.340;2023-10-08T11:18:29;1.10;;;1.00;;
27921;SDS011;15261;50.356;10.340;2023-10-08T11:21:05;1.48;;;1.00;;
27921;SDS011;15261;50.356;10.340;2023-10-08T11:23:44;0.98;;;0.98;;
27921;SDS011;15261;50.356;10.340;2023-10-08T11:26:24;1.17;;;0.90;;
27921;SDS011;15261;50.356;10.340;2023-10-08T11:28:57;1.83;;;1.00;;
27921;SDS011;15261;50.356;10.340;2023-10-08T11:31:26;1.00;;;1.00;;
27921;SDS011;15261;50.356;10.340;2023-10-08T11:33:58;0.90;;;0.90;;
27921;SDS011;15261;50.356;10.340;2023-10-08T11:36:24;0.98;;;0.88;;
27921;SDS011;15261;50.356;10.340;2023-10-08T11:38:57;1.17;;;0.90;;
27921;SDS011;15261;50.356;10.340;2023-10-08T11:41:34;0.80;;;0.80;;
27921;SDS011;15261;50.356;10.340;2023-10-08T11:44:20;0.70;;;0.70;;
27921;SDS011;15261;50.356;10.340;2023-10-08T11:46:48;0.82;;;0.60;;
27921;SDS011;15261;50.356;10.340;2023-10-08T11:49:16;3.92;;;1.10;;
27921;SDS011;15261;50.356;10.340;2023-10-08T11:51:43;1.90;;;0.77;;
27921;SDS011;15261;50.356;10.340;2023-10-08T11:54:11;1.45;;;0.65;;
27921;SDS011;15261;50.356;10.340;2023-10-08T11:56:37;1.55;;;0.80;;
27921;SDS011;15261;50.356;10.340;2023-10-08T11:59:03;0.82;;;0.60;;
27921;SDS011;15261;50.356;10.340;2023-10-08T12:01:37;1.02;;;0.70;;
27921;SDS011;15261;50.356;10.340;2023-10-08T12:04:07;1.00;;;0.70;;
27921;SDS011;15261;50.356;10.340;2023-10-08T12:06:43;0.70;;;0.70;;
27921;SDS011;15261;50.356;10.340;2023-10-08T12:09:15;0.63;;;0.63;;
27921;SDS011;15261;50.356;10.340;2023-10-08T12:11:41;0.85;;;0.82;;
27921;SDS011;15261;50.356;10.340;2023-10-08T12:14:07;0.85;;;0.85;;
27921;SDS011;15261;50.356;10.340;2023-10-08T12:16:34;0.70;;;0.70;;
27921;SDS011;15261;50.356;10.340;2023-10-08T12:19:04;1.45;;;0.88;;
27921;SDS011;15261;50.356;10.340;2023-10-08T12:21:40;2.75;;;1.27;;
27921;SDS011;15261;50.356;10.340;2023-10-08T12:24:07;3.28;;;1.33;;
27921;SDS011;15261;50.356;10.340;2023-10-08T12:26:37;1.00;;;1.00;;
27921;SDS011;15261;50.356;10.340;2023-10-08T12:29:10;2.80;;;1.70;;
27921;SDS011;15261;50.356;10.340;2023-10-08T12:31:39;1.80;;;1.70;;
27921;SDS011;15261;50.356;10.340;2023-10-08T12:34:05;1.30;;;1.30;;
27921;SDS011;15261;50.356;10.340;2023-10-08T12:36:31;1.10;;;1.00;;
27921;SDS011;15261;50.356;10.340;2023-10-08T12:39:01;2.33;;;1.08;;
27921;SDS011;15261;50.356;10.340;2023-10-08T12:41:34;1.35;;;0.65;;
27921;SDS011;15261;50.356;10.340;2023-10-08T12:44:03;1.38;;;1.20;;
27921;SDS011;15261;50.356;10.340;2023-10-08T12:46:32;2.15;;;0.90;;
27921;SDS011;15261;50.356;10.340;2023-10-08T12:48:59;0.68;;;0.60;;
27921;SDS011;15261;50.356;10.340;2023-10-08T12:51:26;0.80;;;0.50;;
27921;SDS011;15261;50.356;10.340;2023-10-08T12:53:57;1.42;;;0.77;;
27921;SDS011;15261;50.356;10.340;2023-10-08T12:56:32;1.77;;;0.60;;
27921;SDS011;15261;50.356;10.340;2023-10-08T12:59:01;1.10;;;0.50;;
27921;SDS011;15261;50.356;10.340;2023-10-08T13:01:46;0.40;;;0.40;;
27921;SDS011;15261;50.356;10.340;2023-10-08T13:04:19;0.85;;;0.85;;
27921;SDS011;15261;50.356;10.340;2023-10-08T13:06:53;0.63;;;0.63;;
27921;SDS011;15261;50.356;10.340;2023-10-08T13:09:22;1.40;;;1.30;;
27921;SDS011;15261;50.356;10.340;2023-10-08T13:11:51;0.70;;;0.70;;
27921;SDS011;15261;50.356;10.340;2023-10-08T13:14:16;1.23;;;1.15;;
27921;SDS011;15261;50.356;10.340;2023-10-08T13:16:42;2.13;;;1.80;;
27921;SDS011;15261;50.356;10.340;2023-10-08T13:19:10;2.47;;;0.98;;
27921;SDS011;15261;50.356;10.340;2023-10-08T13:21:36;0.88;;;0.88;;
27921;SDS011;15261;50.356;10.340;2023-10-08T13:24:02;1.05;;;0.70;;
27921;SDS011;15261;50.356;10.340;2023-10-08T13:26:30;6.30;;;5.43;;
27921;SDS011;15261;50.356;10.340;2023-10-08T13:28:59;4.15;;;3.70;;
27921;SDS011;15261;50.356;10.340;2023-10-08T13:31:37;3.22;;;2.90;;
27921;SDS011;15261;50.356;10.340;2023-10-08T13:34:03;8.52;;;7.53;;
27921;SDS011;15261;50.356;10.340;2023-10-08T13:36:35;2.33;;;2.13;;
27921;SDS011;15261;50.356;10.340;2023-10-08T13:39:03;5.45;;;3.58;;
27921;SDS011;15261;50.356;10.340;2023-10-08T13:41:34;3.92;;;3.47;;
27921;SDS011;15261;50.356;10.340;2023-10-08T13:44:00;2.47;;;1.80;;
27921;SDS011;15261;50.356;10.340;2023-10-08T13:46:30;1.58;;;1.48;;
27921;SDS011;15261;50.356;10.340;2023-10-08T13:49:03;2.95;;;2.65;;
27921;SDS011;15261;50.356;10.340;2023-10-08T13:54:20;1.13;;;1.00;;
27921;SDS011;15261;50.356;10.340;2023-10-08T13:56:47;0.60;;;0.60;;
27921;SDS011;15261;50.356;10.340;2023-10-08T13:59:18;13.85;;;12.60;;
27921;SDS011;15261;50.356;10.340;2023-10-08T14:01:45;10.10;;;9.10;;
27921;SDS011;15261;50.356;10.340;2023-10-08T14:04:18;3.90;;;3.60;;
27921;SDS011;15261;50.356;10.340;2023-10-08T14:06:51;6.40;;;5.88;;
27921;SDS011;15261;50.356;10.340;2023-10-08T14:09:17;1.23;;;1.05;;
27921;SDS011;15261;50.356;10.340;2023-10-08T14:11:47;1.48;;;1.38;;
27921;SDS011;15261;50.356;10.340;2023-10-08T14:14:15;1.30;;;1.30;;
27921;SDS011;15261;50.356;10.340;2023-10-08T14:16:42;1.17;;;0.98;;
27921;SDS011;15261;50.356;10.340;2023-10-08T14:19:15;0.68;;;0.68;;
27921;SDS011;15261;50.356;10.340;2023-10-08T14:21:41;0.95;;;0.93;;
27921;SDS011;15261;50.356;10.340;2023-10-08T14:26:56;1.15;;;0.95;;
27921;SDS011;15261;50.356;10.340;2023-10-08T14:29:27;1.67;;;0.60;;
27921;SDS011;15261;50.356;10.340;2023-10-08T14:31:59;1.95;;;0.77;;
27921;SDS011;15261;50.356;10.340;2023-10-08T14:34:31;0.98;;;0.80;;
27921;SDS011;15261;50.356;10.340;2023-10-08T14:37:12;1.17;;;0.77;;
27921;SDS011;15261;50.356;10.340;2023-10-08T14:40:10;0.80;;;0.80;;
27921;SDS011;15261;50.356;10.340;2023-10-08T14:45:52;1.00;;;0.88;;
27921;SDS011;15261;50.356;10.340;2023-10-08T14:51:02;2.17;;;0.82;;
27921;SDS011;15261;50.356;10.340;2023-10-08T14:53:44;1.02;;;0.93;;
27921;SDS011;15261;50.356;10.340;2023-10-08T14:56:14;0.75;;;0.70;;
27921;SDS011;15261;50.356;10.340;2023-10-08T14:58:41;1.48;;;0.77;;
27921;SDS011;15261;50.356;10.340;2023-10-08T15:01:08;0.93;;;0.93;;
27921;SDS011;15261;50.356;10.340;2023-10-08T15:03:49;1.40;;;1.30;;
27921;SDS011;15261;50.356;10.340;2023-10-08T15:06:23;2.83;;;2.50;;
27921;SDS011;15261;50.356;10.340;2023-10-08T15:08:49;1.33;;;1.00;;
27921;SDS011;15261;50.356;10.340;2023-10-08T15:11:14;1.20;;;1.10;;
27921;SDS011;15261;50.356;10.340;2023-10-08T15:13:41;1.00;;;0.90;;
27921;SDS011;15261;50.356;10.340;2023-10-08T15:16:11;1.38;;;0.82;;
27921;SDS011;15261;50.356;10.340;2023-10-08T15:18:38;1.60;;;1.00;;
27921;SDS011;15261;50.356;10.340;2023-10-08T15:21:07;1.30;;;0.98;;
27921;SDS011;15261;50.356;10.340;2023-10-08T15:23:33;3.35;;;0.90;;
27921;SDS011;15261;50.356;10.340;2023-10-08T15:31:27;1.98;;;0.82;;
27921;SDS011;15261;50.356;10.340;2023-10-08T15:33:55;2.47;;;1.10;;
27921;SDS011;15261;50.356;10.340;2023-10-08T15:39:17;2.47;;;1.10;;
27921;SDS011;15261;50.356;10.340;2023-10-08T15:41:54;2.58;;;0.93;;
27921;SDS011;15261;50.356;10.340;2023-10-08T15:44:23;1.67;;;0.90;;